createdAt,value
2022-09-07T00:00:51.196Z,101240.44
2022-09-07T00:03:55.867Z,101218.22
2022-09-07T00:06:58.895Z,101235.53
2022-09-07T00:10:01.956Z,101243.56
2022-09-07T00:13:04.964Z,101239.50
2022-09-07T00:16:10.234Z,101197.41
2022-09-07T00:19:13.774Z,101223.28
2022-09-07T00:22:16.627Z,101196.59
2022-09-07T00:25:19.394Z,101198.09
2022-09-07T00:28:22.203Z,101141.47
2022-09-07T00:31:26.401Z,101146.34
2022-09-07T00:34:29.117Z,101193.25
2022-09-07T00:37:31.912Z,101203.72
2022-09-07T00:40:34.667Z,101162.59
2022-09-07T00:43:38.676Z,101199.81
2022-09-07T00:46:43.473Z,101193.34
2022-09-07T00:49:46.431Z,101211.91
2022-09-07T00:52:50.233Z,101185.34
2022-09-07T00:55:53.598Z,101220.47
2022-09-07T00:58:56.321Z,101168.41
2022-09-07T01:02:00.515Z,101199.03
2022-09-07T01:05:09.397Z,101202.63
2022-09-07T01:08:12.844Z,101233.69
2022-09-07T01:11:15.534Z,101199.03
2022-09-07T01:14:18.673Z,101184.47
2022-09-07T01:17:27.138Z,101228.50
2022-09-07T01:20:37.914Z,101242.56
2022-09-07T01:24:03.204Z,101258.72
2022-09-07T01:27:53.986Z,101235.44
2022-09-07T01:30:59.415Z,101235.88
2022-09-07T01:34:04.207Z,101184.59
2022-09-07T01:37:09.491Z,101256.53
2022-09-07T01:40:14.545Z,101229.09
2022-09-07T01:43:20.440Z,101250.38
2022-09-07T01:46:27.673Z,101186.91
2022-09-07T01:49:33.481Z,101206.34
2022-09-07T01:52:39.332Z,101219.31
2022-09-07T01:55:44.088Z,101181.38
2022-09-07T01:58:47.349Z,101233.88
2022-09-07T02:01:53.345Z,101214.53
2022-09-07T02:04:57.622Z,101237.13
2022-09-07T02:08:01.571Z,101214.09
2022-09-07T02:11:05.654Z,101232.28
2022-09-07T02:14:09.833Z,101213.75
2022-09-07T02:17:17.106Z,101202.47
2022-09-07T02:20:21.010Z,101229.13
2022-09-07T02:23:25.192Z,101233.09
2022-09-07T02:26:27.905Z,101236.34
2022-09-07T02:29:31.158Z,101234.34
2022-09-07T02:32:35.487Z,101158.34
2022-09-07T02:35:38.259Z,101186.09
2022-09-07T02:38:41.087Z,101256.34
2022-09-07T02:41:44.713Z,101213.84
2022-09-07T02:44:48.177Z,101249.75
2022-09-07T02:48:00.452Z,101231.25
2022-09-07T02:51:07.784Z,101177.09
2022-09-07T02:54:18.384Z,101174.16
2022-09-07T02:57:24.889Z,101184.25
2022-09-07T03:00:27.562Z,101156.56
2022-09-07T03:03:34.961Z,101226.00
2022-09-07T03:06:39.589Z,101206.59
2022-09-07T03:09:43.874Z,101213.09
2022-09-07T03:12:47.527Z,101180.81
2022-09-07T03:15:54.986Z,101167.75
2022-09-07T03:18:59.743Z,101166.91
2022-09-07T03:22:02.459Z,101166.97
2022-09-07T03:25:06.278Z,101202.41
2022-09-07T03:28:09.002Z,101182.88
2022-09-07T03:31:11.902Z,101170.16
2022-09-07T03:34:16.122Z,101188.59
2022-09-07T03:37:18.857Z,101186.69
2022-09-07T03:40:21.594Z,101202.41
2022-09-07T03:43:25.398Z,101172.38
2022-09-07T03:46:28.314Z,101146.44
2022-09-07T03:49:32.497Z,101192.31
2022-09-07T03:52:35.329Z,101185.16
2022-09-07T03:55:38.075Z,101180.41
2022-09-07T03:58:40.824Z,101162.59
2022-09-07T04:01:43.599Z,101181.94
2022-09-07T04:04:48.174Z,101175.44
2022-09-07T04:07:52.483Z,101198.47
2022-09-07T04:10:58.753Z,101192.28
2022-09-07T04:14:01.630Z,101169.13
2022-09-07T04:17:04.370Z,101219.66
2022-09-07T04:20:09.891Z,101210.69
2022-09-07T04:23:12.599Z,101197.28
2022-09-07T04:26:16.651Z,101166.09
2022-09-07T04:29:19.394Z,101179.88
2022-09-07T04:32:22.135Z,101178.22
2022-09-07T04:35:26.323Z,101156.66
2022-09-07T04:38:29.321Z,101200.69
2022-09-07T04:41:32.630Z,101191.78
2022-09-07T04:44:35.534Z,101207.16
2022-09-07T04:47:38.208Z,101197.44
2022-09-07T04:50:42.221Z,101182.97
2022-09-07T04:53:44.899Z,101167.44
2022-09-07T04:56:47.573Z,101194.31
2022-09-07T04:59:50.310Z,101174.84
2022-09-07T05:02:52.976Z,101185.16
2022-09-07T05:05:57.143Z,101190.00
2022-09-07T05:08:59.964Z,101155.28
2022-09-07T05:12:03.047Z,101154.53
2022-09-07T05:15:06.745Z,101125.81
2022-09-07T05:18:09.545Z,101147.31
2022-09-07T05:21:14.628Z,101115.84
2022-09-07T05:24:17.340Z,101144.16
2022-09-07T05:27:20.092Z,101117.13
2022-09-07T05:37:10.835Z,101155.72
2022-09-07T05:40:15.317Z,101187.28
2022-09-07T05:43:17.972Z,101201.16
2022-09-07T05:46:20.746Z,101192.31
2022-09-07T05:49:23.467Z,101201.75
2022-09-07T05:52:27.503Z,101127.75
2022-09-07T05:55:32.023Z,101191.69
2022-09-07T05:58:34.953Z,101197.34
2022-09-07T06:01:37.745Z,101197.06
2022-09-07T06:04:40.577Z,101128.50
2022-09-07T06:07:47.911Z,101155.72
2022-09-07T06:10:50.617Z,101206.41
2022-09-07T06:13:53.367Z,101182.28
2022-09-07T06:16:56.153Z,101225.34
2022-09-07T06:19:58.869Z,101227.72
2022-09-07T06:23:02.986Z,101184.84
2022-09-07T06:26:05.823Z,101144.84
2022-09-07T06:29:10.061Z,101238.25
2022-09-07T06:35:35.626Z,101250.06
2022-09-07T06:38:39.878Z,101196.63
2022-09-07T06:42:00.051Z,101254.00
2022-09-07T06:45:02.851Z,101252.00
2022-09-07T06:48:05.647Z,101256.25
2022-09-07T06:51:10.336Z,101256.22
2022-09-07T06:57:37.072Z,101268.34
2022-09-07T07:00:39.838Z,101267.66
2022-09-07T07:03:42.718Z,101272.63
2022-09-07T07:06:45.394Z,101261.75
2022-09-07T07:09:50.972Z,101280.91
2022-09-07T07:12:57.385Z,101269.41
2022-09-07T07:16:05.146Z,101244.56
2022-09-07T07:19:07.852Z,101178.72
2022-09-07T07:25:35.972Z,101238.50
2022-09-07T07:32:01.838Z,101249.44
2022-09-07T07:35:19.806Z,101264.09
2022-09-07T07:41:55.444Z,101218.41
2022-09-07T07:51:25.462Z,101270.25
2022-09-07T07:54:28.090Z,101276.84
2022-09-07T07:57:33.254Z,101289.81
2022-09-07T08:00:52.965Z,101198.13
2022-09-07T08:03:56.658Z,101267.34
2022-09-07T08:06:59.236Z,101230.31
2022-09-07T08:10:01.971Z,101281.22
2022-09-07T08:13:07.101Z,101252.16
2022-09-07T08:16:09.833Z,101253.00
2022-09-07T08:19:12.487Z,101240.88
2022-09-07T08:22:15.293Z,101220.69
2022-09-07T08:25:18.935Z,101256.97
2022-09-07T08:28:23.412Z,101249.25
2022-09-07T08:31:26.081Z,101180.69
2022-09-07T08:34:28.762Z,101247.13
2022-09-07T08:37:31.404Z,101258.75
2022-09-07T08:40:36.338Z,101254.78
2022-09-07T08:43:48.973Z,101241.47
2022-09-07T08:46:54.164Z,101266.03
2022-09-07T08:50:01.180Z,101242.06
2022-09-07T08:53:03.911Z,101254.88
2022-09-07T08:56:09.525Z,101210.25
2022-09-07T08:59:16.353Z,101200.06
2022-09-07T09:02:40.303Z,101262.13
2022-09-07T09:05:44.747Z,101253.19
2022-09-07T09:08:55.732Z,101272.41
2022-09-07T09:12:02.117Z,101235.44
2022-09-07T09:15:11.211Z,101260.00
2022-09-07T09:18:19.443Z,101241.91
2022-09-07T09:21:22.138Z,101238.81
2022-09-07T09:24:24.672Z,101237.81
2022-09-07T09:27:27.252Z,101266.88
2022-09-07T09:30:31.500Z,101208.56
2022-09-07T09:33:34.137Z,101253.78
2022-09-07T09:36:37.570Z,101240.13
2022-09-07T09:39:42.601Z,101217.44
2022-09-07T09:42:45.263Z,101269.81
2022-09-07T09:49:15.701Z,101236.25
2022-09-07T09:52:42.952Z,101242.13
2022-09-07T09:55:41.731Z,101246.06
2022-09-07T10:05:49.532Z,101226.13
2022-09-07T10:08:56.317Z,101190.78
2022-09-07T10:12:07.741Z,101242.09
2022-09-07T10:15:25.911Z,101241.44
2022-09-07T10:18:33.435Z,101242.66
2022-09-07T10:21:35.986Z,101181.28
2022-09-07T10:24:39.814Z,101238.69
2022-09-07T10:27:45.868Z,101222.41
2022-09-07T10:30:56.549Z,101226.97
2022-09-07T10:37:31.304Z,101231.28
2022-09-07T10:40:35.184Z,101199.44
2022-09-07T10:43:42.243Z,101241.59
2022-09-07T10:47:02.693Z,101235.13
2022-09-07T10:50:24.669Z,101223.66
2022-09-07T10:53:41.193Z,101232.81
2022-09-07T10:56:49.388Z,101243.75
2022-09-07T11:00:10.543Z,101205.59
2022-09-07T11:03:28.060Z,101211.22
2022-09-07T11:06:33.603Z,101226.63
2022-09-07T11:09:43.511Z,101225.94
2022-09-07T11:12:46.069Z,101160.72
2022-09-07T11:15:50.465Z,101208.47
2022-09-07T11:19:35.030Z,101181.53
2022-09-07T11:22:20.470Z,101221.91
2022-09-07T11:25:32.620Z,101204.75
2022-09-07T11:28:42.463Z,101204.97
2022-09-07T11:31:47.444Z,101217.03
2022-09-07T11:34:52.215Z,101202.56
2022-09-07T11:37:59.465Z,101211.38
2022-09-07T11:41:19.847Z,101200.56
2022-09-07T11:44:24.709Z,101194.75
2022-09-07T11:47:29.017Z,101159.41
2022-09-07T11:50:33.254Z,101156.81
2022-09-07T11:53:37.975Z,101202.78
2022-09-07T11:56:45.740Z,101203.03
2022-09-07T11:59:54.544Z,101210.78
2022-09-07T12:03:13.000Z,101195.53
2022-09-07T12:06:28.040Z,101155.22
2022-09-07T12:09:39.782Z,101190.28
2022-09-07T12:12:56.830Z,101218.97
2022-09-07T12:16:01.211Z,101208.72
2022-09-07T12:19:19.276Z,101212.78
2022-09-07T12:22:22.216Z,101213.28
2022-09-07T12:25:26.766Z,101128.03
2022-09-07T12:29:06.469Z,101197.28
2022-09-07T12:35:39.900Z,101216.88
2022-09-07T12:39:07.241Z,101213.88
2022-09-07T12:42:38.934Z,101201.66
2022-09-07T12:45:49.883Z,101182.38
2022-09-07T12:48:55.979Z,101168.44
2022-09-07T12:52:04.938Z,101191.47
2022-09-07T12:55:28.280Z,101174.84
2022-09-07T12:58:39.373Z,101177.09
2022-09-07T13:01:45.726Z,101167.53
2022-09-07T13:04:54.144Z,101187.66
2022-09-07T13:08:14.531Z,101173.00
2022-09-07T13:11:18.414Z,101163.00
2022-09-07T13:14:25.512Z,101187.59
2022-09-07T13:17:42.591Z,101175.94
2022-09-07T13:20:45.280Z,101176.69
2022-09-07T13:24:46.327Z,101173.00
2022-09-07T13:27:52.147Z,101171.84
2022-09-07T13:31:03.373Z,101161.72
2022-09-07T13:34:30.621Z,101156.75
2022-09-07T13:37:45.567Z,101118.13
2022-09-07T13:40:48.731Z,101143.59
2022-09-07T13:43:51.851Z,101103.16
2022-09-07T13:47:03.922Z,101142.94
2022-09-07T13:50:15.699Z,101139.47
2022-09-07T13:53:25.904Z,101117.56
2022-09-07T13:56:34.429Z,101141.31
2022-09-07T13:59:37.186Z,101093.25
2022-09-07T14:02:41.701Z,101130.03
2022-09-07T14:05:44.643Z,101143.22
2022-09-07T14:08:50.820Z,101107.72
2022-09-07T14:11:54.333Z,101130.13
2022-09-07T14:15:09.616Z,101116.25
2022-09-07T14:18:14.476Z,101112.44
2022-09-07T14:21:19.073Z,101104.50
2022-09-07T14:24:25.936Z,101111.47
2022-09-07T14:27:32.996Z,101129.13
2022-09-07T14:30:36.297Z,101137.59
2022-09-07T14:33:44.864Z,101070.19
2022-09-07T14:36:49.386Z,101114.13
2022-09-07T14:39:52.802Z,101088.31
2022-09-07T14:42:58.426Z,101128.81
2022-09-07T14:46:12.981Z,101092.91
2022-09-07T14:49:19.805Z,101062.63
2022-09-07T14:52:23.154Z,101127.84
2022-09-07T14:55:29.446Z,101088.38
2022-09-07T14:58:32.491Z,101055.22
2022-09-07T15:01:38.925Z,101120.38
2022-09-07T15:04:43.233Z,101071.81
2022-09-07T15:07:47.550Z,101084.19
2022-09-07T15:14:21.231Z,101075.19
2022-09-07T15:20:49.063Z,101070.13
2022-09-07T15:23:52.426Z,101085.53
2022-09-07T15:27:02.964Z,101072.41
2022-09-07T15:30:07.033Z,101037.63
2022-09-07T15:33:11.438Z,101024.16
2022-09-07T15:36:16.295Z,101095.31
2022-09-07T15:39:19.868Z,101070.25
2022-09-07T15:45:45.407Z,101039.06
2022-09-07T15:48:50.408Z,101048.16
2022-09-07T15:52:11.216Z,101085.13
2022-09-07T15:55:17.115Z,101070.81
2022-09-07T15:58:20.436Z,101043.34
2022-09-07T16:04:46.082Z,101028.16
2022-09-07T16:11:18.339Z,101069.34
2022-09-07T16:14:21.588Z,101057.50
2022-09-07T16:17:34.291Z,101082.44
2022-09-07T16:20:41.041Z,101028.00
2022-09-07T16:23:47.226Z,101027.06
2022-09-07T16:26:50.040Z,101043.66
2022-09-07T16:29:52.801Z,101049.06
2022-09-07T16:32:55.917Z,101041.34
2022-09-07T16:35:59.728Z,101012.53
2022-09-07T16:39:04.395Z,101022.09
2022-09-07T16:42:07.988Z,101074.13
2022-09-07T16:48:34.781Z,101050.72
2022-09-07T16:51:37.608Z,101054.81
2022-09-07T16:54:41.826Z,101017.19
2022-09-07T17:01:07.842Z,101043.88
2022-09-07T17:04:11.506Z,101048.72
2022-09-07T17:07:14.462Z,101023.09
2022-09-07T17:10:18.571Z,101058.25
2022-09-07T17:13:21.313Z,101044.56
2022-09-07T17:16:24.888Z,101027.66
2022-09-07T17:19:29.202Z,101054.84
2022-09-07T17:22:32.144Z,100995.84
2022-09-07T17:25:37.695Z,101050.75
2022-09-07T17:28:40.956Z,100992.28
2022-09-07T17:35:06.993Z,101052.13
2022-09-07T17:41:36.443Z,101052.16
2022-09-07T17:44:39.051Z,101048.22
2022-09-07T17:47:41.678Z,100976.34
2022-09-07T17:50:44.493Z,101036.75
2022-09-07T17:53:47.159Z,101036.50
2022-09-07T17:56:51.257Z,101040.72
2022-09-07T18:00:11.439Z,101041.94
2022-09-07T18:03:14.351Z,101036.75
2022-09-07T18:06:17.061Z,101015.06
2022-09-07T18:09:20.308Z,101056.13
2022-09-07T18:12:24.348Z,101035.03
2022-09-07T18:15:27.068Z,101015.94
2022-09-07T18:18:29.795Z,100993.78
2022-09-07T18:21:33.792Z,101017.13
2022-09-07T18:24:37.145Z,100998.59
2022-09-07T18:27:41.416Z,101041.13
2022-09-07T18:30:44.288Z,101033.06
2022-09-07T18:33:47.689Z,101028.34
2022-09-07T18:36:50.408Z,101036.47
2022-09-07T18:39:54.362Z,101033.34
2022-09-07T18:42:58.720Z,100978.31
2022-09-07T18:46:02.995Z,101009.25
2022-09-07T18:49:05.639Z,100997.31
2022-09-07T18:55:32.254Z,101018.03
2022-09-07T18:58:36.457Z,100996.00
2022-09-07T19:01:39.513Z,101021.72
2022-09-07T19:08:06.986Z,101025.50
2022-09-07T19:11:10.744Z,100976.00
2022-09-07T19:14:15.812Z,100991.38
2022-09-07T19:17:18.475Z,100992.28
2022-09-07T19:20:21.123Z,100946.44
2022-09-07T19:23:23.817Z,101020.59
2022-09-07T19:26:27.403Z,100989.34
2022-09-07T19:29:31.628Z,101011.81
2022-09-07T19:32:34.231Z,100992.50
2022-09-07T19:35:37.122Z,101013.44
2022-09-07T19:38:40.837Z,100990.13
2022-09-07T19:41:45.084Z,101006.16
2022-09-07T19:44:49.274Z,100954.91
2022-09-07T19:47:51.895Z,101034.50
2022-09-07T19:50:54.611Z,101011.09
2022-09-07T19:53:57.270Z,101013.47
2022-09-07T19:57:01.248Z,101045.66
2022-09-07T20:00:06.652Z,101023.97
2022-09-07T20:03:10.558Z,101058.66
2022-09-07T20:06:14.555Z,101047.09
2022-09-07T20:09:17.412Z,101052.41
2022-09-07T20:12:20.142Z,101051.69
2022-09-07T20:15:24.522Z,101058.19
2022-09-07T20:18:27.617Z,101029.22
2022-09-07T20:21:30.295Z,101059.06
2022-09-07T20:24:34.188Z,101030.13
2022-09-07T20:27:36.739Z,101037.31
2022-09-07T20:30:44.703Z,101030.00
2022-09-07T20:33:47.687Z,100997.38
2022-09-07T20:36:50.404Z,100983.25
2022-09-07T20:39:53.139Z,100937.41
2022-09-07T20:42:55.868Z,100990.06
2022-09-07T20:46:00.088Z,100980.06
2022-09-07T20:49:03.681Z,101006.69
2022-09-07T20:52:06.408Z,101036.97
2022-09-07T20:55:09.991Z,101012.00
2022-09-07T20:58:12.632Z,100970.22
2022-09-07T21:01:17.832Z,101004.41
2022-09-07T21:04:20.670Z,101022.56
2022-09-07T21:07:23.499Z,100993.19
2022-09-07T21:10:26.950Z,101013.34
2022-09-07T21:13:29.712Z,100953.84
2022-09-07T21:16:34.113Z,100958.72
2022-09-07T21:19:37.318Z,100978.03
2022-09-07T21:22:39.998Z,100962.34
2022-09-07T21:25:45.857Z,100994.16
2022-09-07T21:28:48.629Z,100978.09
2022-09-07T21:31:53.437Z,100998.19
2022-09-07T21:34:56.621Z,100988.56
2022-09-07T21:37:59.316Z,100968.44
2022-09-07T21:41:06.771Z,100930.56
2022-09-07T21:44:11.219Z,100929.78
2022-09-07T21:47:15.763Z,100989.38
2022-09-07T21:50:18.644Z,100990.16
2022-09-07T21:53:21.478Z,101016.34
2022-09-07T21:56:24.324Z,100999.84
2022-09-07T21:59:26.977Z,100972.84
2022-09-07T22:02:30.928Z,100969.25
2022-09-07T22:05:36.785Z,100982.53
2022-09-07T22:08:40.562Z,100949.09
2022-09-07T22:11:45.993Z,100952.31
2022-09-07T22:14:49.129Z,100970.03
2022-09-07T22:17:55.267Z,100912.84
2022-09-07T22:21:05.442Z,100946.72
2022-09-07T22:24:08.295Z,100962.78
2022-09-07T22:27:11.128Z,100962.78
2022-09-07T22:30:14.112Z,100937.84
2022-09-07T22:33:18.117Z,100959.19
2022-09-07T22:36:21.824Z,100962.00
2022-09-07T22:39:24.508Z,100944.25
2022-09-07T22:42:27.169Z,100876.63
2022-09-07T22:45:29.851Z,100948.72
2022-09-07T22:48:33.923Z,100891.94
2022-09-07T22:51:36.610Z,100901.59
2022-09-07T22:54:39.229Z,100937.84
2022-09-07T22:57:41.816Z,100937.03
2022-09-07T23:00:45.067Z,100935.03
2022-09-07T23:03:49.300Z,100926.19
2022-09-07T23:06:52.012Z,100924.56
2022-09-07T23:09:54.718Z,100924.94
2022-09-07T23:12:57.427Z,100861.31
2022-09-07T23:16:04.066Z,100849.28
2022-09-07T23:19:08.050Z,100857.31
2022-09-07T23:22:10.667Z,100918.50
2022-09-07T23:25:13.265Z,100854.09
2022-09-07T23:28:15.809Z,100929.78
2022-09-07T23:31:18.442Z,100902.41
2022-09-07T23:34:22.550Z,100838.81
2022-09-07T23:37:25.232Z,100899.19
2022-09-07T23:40:30.184Z,100836.78
2022-09-07T23:43:33.034Z,100805.00
2022-09-07T23:46:35.871Z,100874.22
2022-09-07T23:49:39.986Z,100858.13
2022-09-07T23:52:42.572Z,100821.09
2022-09-07T23:55:45.884Z,100846.03
2022-09-07T23:58:48.701Z,100859.34
